Chitre, Panama
Current Conditions -  °F | °C
As of 11:00 AM on Monday 26 Jan 2015 (Local Time) from MPMG Reporting Station
Scattered Clouds Scattered Clouds  
Wind Chill: 86°   Ceiling: Unl
Heat Index: 90°   Visibility: 6mi
Dew Point: 70°   Wind: 16mph
Humidity: 58%   Direction: 340°NNW
Pressure: 29.91"   Gusts: NA
Location:  7.97°N, 80.42°W
Report Text: MPMG 261600Z 34014KT 9999 SCT020 30/21 Q1013 NOSIG
Loading
Personal Weather Stations






























Interactive Weather Map New forecast layout! Learn more

10-Day Weather Forecast

Advertisements
Track Severe Weather on mobile